Timber Mountain, Nevada Weather observations

Data are for 10 minute period ending at time listed.
 Day   Time   Solar   Ave.   Ave.  Ave.  Vector  Max.   Baro.   Total    
  of    of     Rad.   Air    Rel.  Wind   Wind   Wind  Press.  Precip.   
Year   Day            Temp.  Hum.  Speed  Dir.   Gust                    
2014   (PST)  Kw/m2    F      %     mph   deg.    mph    mb.     in.     
-------------------------------------------------------------------------
 204   10:00   0.88   80.8    12   12.0   158    27.0   817.1    0.00 
 204   11:00   0.99   82.8    10   11.3   206    24.6   817.2    0.00 
 204   12:00   1.04   84.4     8   10.4   202    20.5   817.0    0.00 
 204   13:00   1.04   87.1     8   11.8   231    23.7   816.5    0.00 
 204   14:00   0.97   88.4     9   13.0   231    24.5   816.1    0.00 
 204   15:00   0.86   88.7     9   12.5   225    25.7   815.5    0.00 
 204   16:00   0.69   89.1     8   11.7   224    27.5   815.0    0.00 
 204   17:00   0.49   88.8     9    7.6   209    18.9   814.7    0.00 
 204   18:00   0.28   87.2     9    8.1   188    18.6   814.6    0.00 
 204   19:00   0.07   83.4    11   10.1   188    21.7   814.5    0.00 
 204   20:00   0.00   79.9    12    7.7   176    20.2   814.5    0.00 
 204   21:00   0.00   78.7    12    9.4   153    18.7   814.9    0.00 
 204   22:00   0.00   78.5    13    8.5   175    17.2   815.0    0.00 
 204   23:00   0.00   77.6    12    8.0   172    21.9   814.8    0.00 
 205    0:00   0.00   76.8    11   10.1   151    22.0   814.5    0.00 
 205    1:00   0.00   75.9    11    6.8   163    17.0   814.1    0.00 
 205    2:00   0.00   74.6    12    6.0   157    14.0   813.7    0.00 
 205    3:00   0.00   71.1    14    9.3   137    17.5   813.4    0.00 
 205    4:00   0.00   72.7    14   11.8   141    20.7   813.3    0.00 
 205    5:00   0.00   72.5    14    7.3   131    18.4   813.5    0.00 
 205    6:00   0.09   73.4    13   11.4   135    20.2   813.8    0.00 
 205    7:00   0.32   78.6    11    5.1   124    16.1   814.3    0.00 
 205    8:00   0.53   79.0    11    8.6   141    16.5   814.7    0.00 
 205    9:00   0.73   82.4    10    5.6   152    14.3   814.9    0.00 

Return to Timber Mountain graphs page.


Western Regional Climate Center,wrcc@dri.edu